Data for 02/21/2015

Time Sea-Level Adjusted Pressure Absolute Pressure Temperature Relative Humidity Dew Point   
(mb) (inHg) (mb) (inHg) (C) (F) (%) (C) (F)
00:05 1016 30 845 24.95 -1 30.2 94 -1.9 28.5
00:10 1016 30 845 24.95 -1 30.2 93 -1.9 28.5
00:15 1016 30 845 24.95 -1 30.2 93 -2 28.4
00:20 1016 30 845 24.95 -1 30.2 93 -1.9 28.5
00:25 1016 30 845 24.95 -0.9 30.4 93 -1.9 28.7
00:30 1016 30 845 24.95 -0.9 30.4 93 -1.9 28.6
00:35 1016 30 846 24.98 -1 30.2 93 -2 28.3
00:40 1016 30 846 24.98 -1.2 29.9 93 -2.2 28
00:45 1017 30.03 846 24.98 -1.4 29.5 92 -2.5 27.6
00:50 1017 30.03 846 24.98 -1.5 29.2 92 -2.6 27.3
00:55 1017 30.03 846 24.98 -1.8 28.8 92 -2.9 26.8
01:00 1017 30.03 846 24.98 -1.8 28.7 92 -3 26.5
01:05 1017 30.03 846 24.98 -1.7 28.9 90 -3.1 26.4
01:10 1017 30.03 846 24.98 -1.8 28.7 91 -3.1 26.4
01:15 1017 30.03 846 24.98 -1.8 28.7 91 -3.1 26.5
01:20 1017 30.03 846 24.98 -2 28.5 90 -3.4 25.9
01:25 1017 30.03 846 24.98 -2.1 28.2 91 -3.4 25.8
01:30 1017 30.03 846 24.98 -2.3 27.9 91 -3.5 25.6
01:35 1017 30.03 846 24.98 -2.4 27.7 90 -3.9 25.1
01:40 1017 30.03 846 24.98 -2.5 27.5 90 -4 24.8
01:45 1017 30.03 846 24.98 -2.5 27.4 89 -4.2 24.5
01:50 1017 30.03 846 24.98 -2.6 27.4 89 -4.2 24.5
01:55 1017 30.03 846 24.98 -2.6 27.3 89 -4.1 24.6
02:00 1017 30.03 846 24.98 -2.6 27.4 89 -4.2 24.4
02:05 1017 30.03 846 24.98 -2.6 27.3 87 -4.4 24.1
02:10 1017 30.03 846 24.98 -2.6 27.3 87 -4.4 24
02:15 1017 30.03 846 24.98 -2.7 27.2 87 -4.5 23.8
02:20 1017 30.03 846 24.98 -2.7 27.1 87 -4.6 23.7
02:25 1017 30.03 847 25.01 -2.8 27 88 -4.5 23.8
02:30 1017 30.03 847 25.01 -2.9 26.9 87 -4.7 23.6
02:35 1018 30.06 847 25.01 -2.9 26.7 88 -4.7 23.6
02:40 1017 30.03 847 25.01 -3 26.6 89 -4.5 23.9
02:45 1017 30.03 847 25.01 -3.1 26.3 90 -4.6 23.8
02:50 1017 30.03 847 25.01 -3.2 26.3 90 -4.6 23.8
02:55 1018 30.06 847 25.01 -3.2 26.2 90 -4.6 23.7
03:00 1018 30.06 847 25.01 -3.3 26.1 90 -4.7 23.6
03:05 1018 30.06 847 25.01 -3.3 26 90 -4.7 23.6
03:10 1018 30.06 847 25.01 -3.3 26 91 -4.6 23.7
03:15 1018 30.06 847 25.01 -3.4 25.9 91 -4.7 23.6
03:20 1018 30.06 847 25.01 -3.4 25.9 91 -4.7 23.5
03:25 1018 30.06 847 25.01 -3.4 25.9 90 -4.8 23.3
03:30 1018 30.06 847 25.01 -3.3 26 90 -4.7 23.5
03:35 1018 30.06 847 25.01 -3.4 25.9 90 -4.8 23.3
03:40 1018 30.06 847 25.01 -3.4 25.9 89 -5 23.1
03:45 1018 30.06 847 25.01 -3.3 26.1 87 -5.1 22.8
03:50 1018 30.06 847 25.01 -3.2 26.3 86 -5.1 22.8
03:55 1018 30.06 847 25.01 -3.1 26.3 87 -5 22.9
04:00 1018 30.06 847 25.01 -3.2 26.3 86 -5.2 22.7
04:05 1018 30.06 847 25.01 -3.2 26.3 87 -5.1 22.9
04:10 1018 30.06 847 25.01 -3.2 26.2 86 -5.2 22.7
04:15 1018 30.06 847 25.01 -3.3 26.1 86 -5.2 22.6
04:20 1018 30.06 847 25.01 -3.3 26.1 85 -5.4 22.2
04:25 1018 30.06 847 25.01 -3.3 26.1 85 -5.5 22.2
04:30 1018 30.06 847 25.01 -3.3 26.1 85 -5.4 22.3
04:35 1018 30.06 847 25.01 -3.3 26 85 -5.5 22.1
04:40 1018 30.06 847 25.01 -3.4 25.9 84 -5.7 21.7
04:45 1018 30.06 847 25.01 -3.4 25.9 83 -5.9 21.4
04:50 1018 30.06 847 25.01 -3.4 25.9 82 -6 21.2
04:55 1018 30.06 847 25.01 -3.4 25.9 81 -6.2 20.9
05:00 1018 30.06 847 25.01 -3.4 25.9 80 -6.3 20.7
05:05 1018 30.06 847 25.01 -3.4 25.9 78 -6.8 19.8
05:10 1018 30.06 848 25.04 -3.4 25.8 77 -6.9 19.7
05:15 1018 30.06 848 25.04 -3.5 25.7 78 -6.8 19.7
05:20 1018 30.06 848 25.04 -3.5 25.6 79 -6.6 20.1
05:25 1018 30.06 848 25.04 -3.6 25.6 81 -6.4 20.5
05:30 1019 30.09 848 25.04 -3.6 25.5 83 -6 21.2
05:35 1019 30.09 848 25.04 -3.6 25.6 84 -5.9 21.3
05:40 1019 30.09 848 25.04 -3.6 25.5 80 -6.5 20.2
05:45 1019 30.09 848 25.04 -3.6 25.5 85 -5.8 21.5
05:50 1019 30.09 848 25.04 -3.7 25.3 84 -6 21.2
05:55 1019 30.09 848 25.04 -4 24.8 82 -6.6 20
06:00 1019 30.09 848 25.04 -4.4 24 86 -6.5 20.3
06:05 1019 30.09 848 25.04 -4.8 23.3 88 -6.6 20.2
06:10 1019 30.09 848 25.04 -5 23 88 -6.7 20
06:15 1019 30.09 848 25.04 -5.1 22.8 87 -6.9 19.6
06:20 1019 30.09 848 25.04 -5.2 22.6 88 -7 19.5
06:25 1019 30.09 848 25.04 -5.3 22.5 87 -7.1 19.2
06:30 1019 30.09 848 25.04 -5.3 22.4 86 -7.3 18.9
06:35 1019 30.09 848 25.04 -5.2 22.7 79 -8.3 17
06:40 1019 30.09 848 25.04 -4.9 23.1 75 -8.6 16.5
06:45 1019 30.09 848 25.04 -4.8 23.4 74 -8.7 16.3
06:50 1019 30.09 848 25.04 -4.8 23.4 79 -7.9 17.8
06:55 1019 30.09 848 25.04 -5 23.1 78 -8.2 17.3
07:00 1019 30.09 848 25.04 -5.1 22.7 78 -8.4 16.9
07:05 1019 30.09 849 25.07 -5.3 22.4 79 -8.3 17
07:10 1019 30.09 849 25.07 -5.5 22.2 80 -8.4 16.9
07:15 1019 30.09 849 25.07 -5.4 22.4 84 -7.7 18.2
07:20 1020 30.12 849 25.07 -5.6 22 85 -7.7 18.1
07:25 1020 30.12 849 25.07 -5.7 21.7 84 -8 17.6
07:30 1020 30.12 849 25.07 -5.9 21.4 85 -8.1 17.4
07:35 1020 30.12 849 25.07 -5.9 21.4 81 -8.7 16.4
07:40 1020 30.12 849 25.07 -5.7 21.7 82 -8.4 16.9
07:45 1020 30.12 849 25.07 -6 21.2 83 -8.4 16.9
07:50 1020 30.12 849 25.07 -6.2 20.8 84 -8.5 16.7
07:55 1020 30.12 849 25.07 -6.2 20.8 83 -8.7 16.3
08:00 1020 30.12 849 25.07 -6.2 20.8 83 -8.6 16.5
08:05 1020 30.12 849 25.07 -6.3 20.7 83 -8.7 16.3
08:10 1020 30.12 849 25.07 -6.5 20.2 85 -8.7 16.4
08:15 1020 30.12 849 25.07 -6.7 20 85 -8.8 16.2
08:20 1020 30.12 849 25.07 -6.6 20.1 84 -8.9 16.1
08:25 1020 30.12 849 25.07 -6.6 20.2 85 -8.7 16.4
08:30 1020 30.12 849 25.07 -6.6 20.1 84 -9 15.9
08:35 1020 30.12 849 25.07 -6.6 20.1 83 -9.1 15.7
08:40 1020 30.12 849 25.07 -6.5 20.3 83 -8.9 16
08:45 1020 30.12 849 25.07 -6.5 20.3 83 -8.9 15.9
08:50 1020 30.12 849 25.07 -6.5 20.3 83 -8.9 15.9
08:55 1020 30.12 849 25.07 -6.6 20.1 83 -9 15.8
09:00 1020 30.12 849 25.07 -6.5 20.3 83 -8.9 16
09:05 1020 30.12 850 25.1 -6.5 20.4 83 -8.9 15.9
09:10 1020 30.12 850 25.1 -6.5 20.4 83 -8.9 15.9
09:15 1020 30.12 850 25.1 -6.4 20.4 82 -8.9 15.9
09:20 1020 30.12 850 25.1 -6.4 20.5 82 -9 15.9
09:25 1021 30.15 850 25.1 -6.4 20.5 82 -9 15.8
09:30 1021 30.15 850 25.1 -6.4 20.4 82 -9 15.8
09:35 1021 30.15 850 25.1 -6.3 20.6 80 -9.2 15.5
09:40 1021 30.15 850 25.1 -6.3 20.7 80 -9.2 15.4
09:45 1021 30.15 850 25.1 -6.3 20.7 81 -9 15.9
09:50 1021 30.15 850 25.1 -6.4 20.5 82 -8.9 16
09:55 1021 30.15 850 25.1 -6.4 20.4 81 -9.2 15.4
10:00 1021 30.15 850 25.1 -6.6 20.1 78 -9.9 14.2
10:05 1021 30.15 850 25.1 -6.8 19.8 79 -9.9 14.2
10:10 1021 30.15 850 25.1 -6.8 19.7 77 -10.2 13.7
10:15 1021 30.15 850 25.1 -6.8 19.7 78 -10 14
10:20 1021 30.15 850 25.1 -6.9 19.6 79 -9.9 14.2
10:25 1021 30.15 851 25.13 -7 19.4 78 -10.1 13.8
10:30 1021 30.15 851 25.13 -6.9 19.5 80 -9.9 14.2
10:35 1021 30.15 851 25.13 -6.9 19.6 80 -9.8 14.4
10:40 1022 30.18 851 25.13 -6.9 19.6 79 -10 14.1
10:45 1022 30.18 851 25.13 -6.9 19.6 78 -10.1 13.8
10:50 1022 30.18 851 25.13 -6.9 19.6 77 -10.3 13.5
10:55 1022 30.18 851 25.13 -6.9 19.6 77 -10.3 13.5
11:00 1022 30.18 851 25.13 -6.9 19.7 78 -10.1 13.8
11:05 1022 30.18 851 25.13 -6.8 19.8 77 -10.2 13.6
11:10 1022 30.18 851 25.13 -6.7 20 75 -10.5 13.2
11:15 1022 30.18 851 25.13 -6.5 20.2 74 -10.5 13.1
11:20 1022 30.18 851 25.13 -6.6 20.1 72 -10.8 12.5
11:25 1022 30.18 851 25.13 -6.6 20.2 71 -10.9 12.4
11:30 1022 30.18 851 25.13 -6.5 20.3 71 -11 12.3
11:35 1022 30.18 851 25.13 -6.5 20.2 71 -11 12.2
11:40 1022 30.18 851 25.13 -6.6 20.2 73 -10.7 12.7
11:45 1022 30.18 851 25.13 -6.5 20.2 72 -10.8 12.6
11:50 1022 30.18 852 25.16 -6.6 20.1 73 -10.6 12.9
11:55 1022 30.18 852 25.16 -6.4 20.4 73 -10.6 13
12:00 1022 30.18 852 25.16 -6.7 20 76 -10.3 13.5
12:05 1022 30.18 852 25.16 -6.4 20.5 74 -10.3 13.5
12:10 1022 30.18 852 25.16 -6.4 20.4 73 -10.5 13.1
12:15 1023 30.21 852 25.16 -6.5 20.4 74 -10.4 13.2
12:20 1023 30.21 852 25.16 -6.2 20.8 71 -10.6 12.9
12:25 1023 30.21 852 25.16 -5.9 21.3 71 -10.3 13.5
12:30 1023 30.21 852 25.16 -6 21.2 72 -10.2 13.6
12:35 1023 30.21 852 25.16 -5.9 21.3 73 -10.1 13.8
12:40 1023 30.21 852 25.16 -5.7 21.7 70 -10.3 13.4
12:45 1023 30.21 852 25.16 -5.9 21.5 73 -10 14
12:50 1023 30.21 852 25.16 -5.5 22.1 68 -10.4 13.2
12:55 1023 30.21 852 25.16 -5.3 22.5 68 -10.3 13.5
13:00 1023 30.21 852 25.16 -5.1 22.8 65 -10.7 12.8
13:05 1023 30.21 852 25.16 -5.3 22.5 67 -10.4 13.2
13:10 1023 30.21 852 25.16 -5 23 66 -10.5 13.2
13:15 1023 30.21 852 25.16 -5.1 22.8 67 -10.4 13.3
13:20 1023 30.21 852 25.16 -5.3 22.5 68 -10.3 13.5
13:25 1023 30.21 852 25.16 -4.9 23.2 68 -10 14.1
13:30 1023 30.21 852 25.16 -4.3 24.2 68 -9.5 15
13:35 1023 30.21 852 25.16 -4.6 23.8 76 -8.3 17.1
13:40 1023 30.21 852 25.16 -4.7 23.6 74 -8.6 16.5
13:45 1023 30.21 852 25.16 -5.1 22.8 73 -9.2 15.4
13:50 1023 30.21 852 25.16 -5 23 75 -8.7 16.3
13:55 1023 30.21 852 25.16 -5.2 22.6 78 -8.5 16.8
14:00 1023 30.21 852 25.16 -5.1 22.9 78 -8.4 16.9
14:05 1023 30.21 852 25.16 -4.9 23.2 77 -8.4 17
14:10 1023 30.21 852 25.16 -5.1 22.8 79 -8.3 17.1
14:15 1023 30.21 852 25.16 -5.3 22.5 81 -8.1 17.5
14:20 1023 30.21 852 25.16 -5.4 22.2 79 -8.5 16.6
14:25 1023 30.21 852 25.16 -5.4 22.2 75 -9.2 15.4
14:30 1023 30.21 852 25.16 -5.1 22.7 72 -9.4 15
14:35 1023 30.21 852 25.16 -5 23 69 -9.8 14.4
14:40 1023 30.21 853 25.19 -4.9 23.2 70 -9.6 14.7
14:45 1023 30.21 853 25.19 -4.2 24.4 65 -9.9 14.3
14:50 1023 30.21 853 25.19 -3.8 25.1 61 -10.2 13.7
14:55 1023 30.21 853 25.19 -3.9 25 61 -10.3 13.4
15:00 1023 30.21 853 25.19 -4.1 24.6 64 -9.9 14.1
15:05 1024 30.24 853 25.19 -3.8 25.1 63 -9.9 14.1
15:10 1024 30.24 853 25.19 -3.7 25.3 58 -10.8 12.5
15:15 1024 30.24 853 25.19 -3.9 24.9 57 -11.3 11.7
15:20 1024 30.24 853 25.19 -4.1 24.7 57 -11.3 11.7
15:25 1024 30.24 853 25.19 -4.3 24.2 50 -13.4 7.9
15:30 1024 30.24 853 25.19 -4.4 24 47 -14 6.7
15:35 1024 30.24 853 25.19 -4.8 23.4 48 -14.2 6.5
15:40 1024 30.24 853 25.19 -4.7 23.6 48 -14.1 6.7
15:45 1024 30.24 853 25.19 -4.5 23.9 54 -12.4 9.7
15:50 1024 30.24 853 25.19 -4.8 23.4 52 -13.1 8.4
15:55 1024 30.24 853 25.19 -5.3 22.4 52 -13.8 7.2
16:00 1024 30.24 853 25.19 -5.4 22.3 51 -14 6.8
16:05 1024 30.24 853 25.19 -4.9 23.1 49 -14.2 6.4
16:10 1024 30.24 853 25.19 -4.9 23.1 49 -14.1 6.6
16:15 1024 30.24 853 25.19 -4.8 23.4 47 -14.4 6.1
16:20 1024 30.24 853 25.19 -4.6 23.8 42 -15.7 3.7
16:25 1024 30.24 853 25.19 -4.8 23.4 43 -15.6 3.9
16:30 1024 30.24 853 25.19 -4.6 23.8 43 -15.3 4.4
16:35 1024 30.24 853 25.19 -4.6 23.7 42 -15.8 3.5
16:40 1024 30.24 853 25.19 -4.9 23.3 43 -15.5 4.1
16:45 1024 30.24 853 25.19 -4.8 23.4 42 -15.8 3.5
16:50 1024 30.24 854 25.22 -5.1 22.9 43 -15.7 3.7
16:55 1024 30.24 854 25.22 -5.1 22.9 41 -16.5 2.3
17:00 1024 30.24 854 25.22 -5.2 22.7 40 -16.8 1.7
17:05 1024 30.24 854 25.22 -5.1 22.8 39 -17.1 1.3
17:10 1024 30.24 854 25.22 -5.2 22.7 39 -17.2 1.1
17:15 1024 30.24 854 25.22 -5.2 22.7 38 -17.4 0.6
17:20 1024 30.24 854 25.22 -5.4 22.3 40 -17.1 1.2
17:25 1024 30.24 854 25.22 -5.3 22.5 41 -16.7 2
17:30 1024 30.24 853 25.19 -5.2 22.6 41 -16.5 2.3
17:35 1024 30.24 853 25.19 -5.3 22.4 43 -16.2 2.9
17:40 1024 30.24 854 25.22 -5.2 22.6 42 -16.1 2.9
17:45 1024 30.24 854 25.22 -5.3 22.4 43 -16.1 3
17:50 1024 30.24 854 25.22 -5.2 22.6 40 -16.7 2
17:55 1025 30.27 854 25.22 -5.2 22.7 40 -16.9 1.6
18:00 1025 30.27 854 25.22 -5 23 39 -17 1.4
18:05 1025 30.27 854 25.22 -5.4 22.3 42 -16.3 2.7
18:10 1025 30.27 854 25.22 -5.4 22.2 45 -15.5 4
18:15 1025 30.27 854 25.22 -5.4 22.3 44 -15.9 3.3
18:20 1025 30.27 854 25.22 -5.4 22.3 43 -16.1 3
18:25 1025 30.27 854 25.22 -5.4 22.3 45 -15.5 4
18:30 1025 30.27 854 25.22 -5.6 21.9 42 -16.6 2.1
18:35 1025 30.27 854 25.22 -6 21.2 45 -16.1 3.1
18:40 1025 30.27 854 25.22 -6.1 21.1 42 -17 1.4
18:45 1025 30.27 854 25.22 -6.2 20.8 40 -17.7 0.2
18:50 1025 30.27 854 25.22 -6.5 20.4 41 -17.7 0.1
18:55 1025 30.27 854 25.22 -6.6 20.1 42 -17.6 0.4
19:00 1025 30.27 855 25.25 -6.5 20.2 43 -17.1 1.3
19:05 1025 30.27 855 25.25 -6.6 20.2 45 -16.5 2.2
19:10 1025 30.27 855 25.25 -6.5 20.2 44 -17 1.5
19:15 1025 30.27 855 25.25 -6.7 19.9 44 -17 1.4
19:20 1026 30.3 855 25.25 -6.8 19.7 46 -16.5 2.2
19:25 1026 30.3 855 25.25 -6.9 19.6 46 -16.6 2.1
19:30 1026 30.3 855 25.25 -7 19.3 47 -16.6 2.1
19:35 1026 30.3 855 25.25 -7.1 19.1 47 -16.6 2.1
19:40 1026 30.3 855 25.25 -7.5 18.6 49 -16.3 2.6
19:45 1026 30.3 855 25.25 -7.6 18.3 50 -16.4 2.4
19:50 1026 30.3 855 25.25 -7.6 18.3 51 -16.2 2.9
19:55 1026 30.3 855 25.25 -7.5 18.4 51 -16.1 3
20:00 1026 30.3 855 25.25 -7.5 18.5 48 -16.7 1.9
20:05 1026 30.3 855 25.25 -7.7 18.2 50 -16.5 2.2
20:10 1026 30.3 855 25.25 -7.8 18 51 -16.3 2.7
20:15 1026 30.3 855 25.25 -8 17.6 53 -16 3.1
20:20 1026 30.3 855 25.25 -8.2 17.3 50 -16.9 1.6
20:25 1026 30.3 855 25.25 -8.2 17.3 52 -16.5 2.3
20:30 1026 30.3 855 25.25 -8.1 17.5 48 -17.1 1.2
20:35 1026 30.3 855 25.25 -7.9 17.8 47 -17.3 0.9
20:40 1026 30.3 856 25.28 -7.9 17.7 48 -17.1 1.2
20:45 1026 30.3 856 25.28 -8.2 17.2 49 -17.1 1.2
20:50 1026 30.3 856 25.28 -8.6 16.4 52 -16.8 1.7
20:55 1027 30.33 856 25.28 -8.9 15.9 54 -16.6 2.2
21:00 1027 30.33 856 25.28 -9.2 15.4 56 -16.6 2.1
21:05 1027 30.33 856 25.28 -9.3 15.3 56 -16.6 2.2
21:10 1027 30.33 856 25.28 -9.6 14.8 57 -16.5 2.2
21:15 1027 30.33 856 25.28 -9.7 14.6 58 -16.4 2.4
21:20 1027 30.33 856 25.28 -9.7 14.5 59 -16.3 2.6
21:25 1027 30.33 856 25.28 -9.8 14.3 59 -16.4 2.5
21:30 1027 30.33 856 25.28 -10.1 13.9 57 -17 1.3
21:35 1027 30.33 856 25.28 -10.4 13.3 59 -17 1.5
21:40 1027 30.33 856 25.28 -10.5 13.2 56 -17.5 0.4
21:45 1027 30.33 856 25.28 -10.6 13 58 -17.4 0.6
21:50 1027 30.33 856 25.28 -10.6 12.9 55 -18.1 -0.6
21:55 1027 30.33 856 25.28 -10.8 12.6 56 -18.1 -0.5
22:00 1027 30.33 856 25.28 -10.8 12.5 55 -18.2 -0.8
22:05 1027 30.33 857 25.31 -10.9 12.3 56 -18 -0.4
22:10 1027 30.33 857 25.31 -11.3 11.6 62 -17.3 0.8
22:15 1027 30.33 857 25.31 -11.8 10.8 63 -17.5 0.5
22:20 1028 30.36 857 25.31 -12 10.4 64 -17.6 0.3
22:25 1027 30.33 857 25.31 -12.1 10.3 64 -17.6 0.3
22:30 1028 30.36 857 25.31 -12.2 10.1 63 -17.8 -0.1
22:35 1028 30.36 857 25.31 -12.4 9.8 64 -17.8 -0
22:40 1028 30.36 857 25.31 -12.6 9.4 64 -18.1 -0.5
22:45 1028 30.36 857 25.31 -12.7 9.1 63 -18.5 -1.2
22:50 1028 30.36 857 25.31 -12.8 9 63 -18.5 -1.2
22:55 1028 30.36 857 25.31 -12.9 8.8 63 -18.6 -1.5
23:00 1028 30.36 857 25.31 -13 8.5 62 -18.8 -1.9
23:05 1028 30.36 857 25.31 -13.1 8.4 63 -18.8 -1.9
23:10 1028 30.36 857 25.31 -13.2 8.3 64 -18.7 -1.6
23:15 1028 30.36 857 25.31 -13.4 7.9 64 -18.8 -1.9
23:20 1028 30.36 857 25.31 -13.4 7.8 63 -19.1 -2.4
23:25 1028 30.36 857 25.31 -13.5 7.7 63 -19.1 -2.3
23:30 1028 30.36 857 25.31 -13.8 7.2 64 -19.3 -2.7
23:35 1028 30.36 857 25.31 -14.1 6.7 64 -19.4 -2.9
23:40 1028 30.36 857 25.31 -14.2 6.4 65 -19.5 -3.2
23:45 1028 30.36 857 25.31 -14.4 6.1 65 -19.6 -3.3
23:50 1028 30.36 858 25.34 -14.3 6.2 64 -19.8 -3.6
23:55 1028 30.36 858 25.34 -14.5 5.8 64 -19.9 -3.9
24:00 1028 30.36 858 25.34 -14.6 5.7 65 -19.9 -3.8